createdAt,value
2022-08-18T00:01:08.114Z,95137.22
2022-08-18T00:03:56.581Z,95130.22
2022-08-18T00:06:28.526Z,95144.78
2022-08-18T00:08:58.040Z,95132.00
2022-08-18T00:11:26.275Z,95140.66
2022-08-18T00:13:54.428Z,95141.91
2022-08-18T00:16:22.578Z,95141.53
2022-08-18T00:18:52.131Z,95141.53
2022-08-18T00:21:20.764Z,95150.19
2022-08-18T00:23:49.001Z,95087.25
2022-08-18T00:26:17.225Z,95149.44
2022-08-18T00:28:45.442Z,95149.44
2022-08-18T00:31:13.688Z,95145.13
2022-08-18T00:33:43.757Z,95145.09
2022-08-18T00:36:13.563Z,95134.50
2022-08-18T00:38:41.900Z,95132.13
2022-08-18T00:41:10.174Z,95149.31
2022-08-18T00:43:43.364Z,95143.00
2022-08-18T00:46:15.672Z,95144.22
2022-08-18T00:48:48.733Z,95125.97
2022-08-18T00:51:24.751Z,95141.59
2022-08-18T00:53:58.498Z,95150.59
2022-08-18T00:56:31.551Z,95138.50
2022-08-18T00:59:04.297Z,95159.53
2022-08-18T01:01:34.389Z,95159.50
2022-08-18T01:04:09.388Z,95153.22
2022-08-18T01:06:46.109Z,95156.03
2022-08-18T01:09:14.548Z,95152.09
2022-08-18T01:11:43.337Z,95154.84
2022-08-18T01:14:15.951Z,95150.56
2022-08-18T01:17:02.069Z,95149.47
2022-08-18T01:19:48.499Z,95110.75
2022-08-18T01:22:25.280Z,95151.00
2022-08-18T01:25:16.004Z,95150.22
2022-08-18T01:27:44.667Z,95151.03
2022-08-18T01:30:16.144Z,95114.66
2022-08-18T01:32:46.100Z,95094.00
2022-08-18T01:35:17.591Z,95146.34
2022-08-18T01:37:48.369Z,95148.31
2022-08-18T01:41:11.078Z,95148.72
2022-08-18T01:43:08.886Z,95117.88
2022-08-18T01:45:43.512Z,95147.94
2022-08-18T01:48:11.944Z,95148.66
2022-08-18T01:50:41.814Z,95141.59
2022-08-18T01:53:11.627Z,95143.50
2022-08-18T01:55:45.440Z,95136.03
2022-08-18T01:58:14.632Z,95138.34
2022-08-18T02:00:43.126Z,95138.44
2022-08-18T02:03:14.717Z,95135.34
2022-08-18T02:05:49.699Z,95128.69
2022-08-18T02:08:22.338Z,95135.34
2022-08-18T02:11:03.664Z,95070.47
2022-08-18T02:13:32.218Z,94903.47
2022-08-18T02:16:00.830Z,95160.69
2022-08-18T02:18:48.375Z,95153.63
2022-08-18T02:21:22.993Z,95146.56
2022-08-18T02:23:59.757Z,95147.03
2022-08-18T02:26:29.426Z,95145.13
2022-08-18T02:29:06.668Z,95154.16
2022-08-18T02:31:37.155Z,95146.72
2022-08-18T02:34:05.421Z,95145.53
2022-08-18T02:36:33.999Z,95147.94
2022-08-18T02:39:05.118Z,95138.97
2022-08-18T02:41:38.160Z,95137.81
2022-08-18T02:44:08.967Z,95140.19
2022-08-18T02:46:48.179Z,95106.19
2022-08-18T02:49:16.478Z,95149.97
2022-08-18T02:51:49.039Z,95155.00
2022-08-18T02:54:17.519Z,95088.19
2022-08-18T02:56:47.990Z,95146.41
2022-08-18T02:59:23.293Z,95155.75
2022-08-18T03:01:53.927Z,95027.56
2022-08-18T03:04:29.104Z,95151.47
2022-08-18T03:07:34.237Z,95154.19
2022-08-18T03:10:32.610Z,95042.41
2022-08-18T03:12:54.762Z,95157.28
2022-08-18T03:15:41.293Z,95160.78
2022-08-18T03:18:24.176Z,95154.94
2022-08-18T03:21:20.176Z,95168.22
2022-08-18T03:24:00.342Z,95159.22
2022-08-18T03:26:34.343Z,95163.53
2022-08-18T03:29:04.349Z,95168.19
2022-08-18T03:31:51.066Z,95162.69
2022-08-18T03:34:46.766Z,95162.66
2022-08-18T03:37:15.963Z,94914.28
2022-08-18T03:39:44.520Z,95174.28
2022-08-18T03:42:17.034Z,95176.31
2022-08-18T03:44:46.864Z,95174.34
2022-08-18T03:47:18.234Z,95175.09
2022-08-18T03:49:46.381Z,95175.94
2022-08-18T03:52:47.971Z,95170.50
2022-08-18T03:55:20.752Z,95134.41
2022-08-18T03:58:08.657Z,94993.66
2022-08-18T04:00:49.628Z,95175.13
2022-08-18T04:03:18.519Z,95179.06
2022-08-18T04:05:47.821Z,95188.06
2022-08-18T04:08:25.843Z,95183.00
2022-08-18T04:10:54.533Z,95195.88
2022-08-18T04:13:23.032Z,95194.72
2022-08-18T04:15:54.253Z,94993.69
2022-08-18T04:18:22.439Z,95187.69
2022-08-18T04:21:03.478Z,95103.59
2022-08-18T04:23:43.822Z,95200.28
2022-08-18T04:26:19.438Z,95201.94
2022-08-18T04:28:48.285Z,95203.50
2022-08-18T04:31:23.728Z,95206.38
2022-08-18T04:33:52.002Z,95204.06
2022-08-18T04:36:23.438Z,95199.44
2022-08-18T04:38:52.242Z,95049.00
2022-08-18T04:41:27.242Z,95128.47
2022-08-18T04:43:57.806Z,95202.94
2022-08-18T04:46:28.492Z,95202.94
2022-08-18T04:48:59.858Z,95209.69
2022-08-18T04:52:37.140Z,95205.94
2022-08-18T04:54:18.076Z,95205.31
2022-08-18T04:56:46.423Z,95209.91
2022-08-18T04:59:15.858Z,95205.81
2022-08-18T05:01:48.289Z,95212.88
2022-08-18T05:04:28.892Z,95224.03
2022-08-18T05:06:57.397Z,95211.06
2022-08-18T05:09:25.436Z,95212.72
2022-08-18T05:11:59.657Z,95196.34
2022-08-18T05:14:30.677Z,95212.97
2022-08-18T05:17:01.808Z,95234.25
2022-08-18T05:19:44.006Z,95219.72
2022-08-18T05:22:28.682Z,95148.44
2022-08-18T05:25:06.057Z,95231.81
2022-08-18T05:27:40.587Z,95238.31
2022-08-18T05:33:03.668Z,95231.81
2022-08-18T05:35:48.142Z,95230.19
2022-08-18T05:38:31.229Z,94998.53
2022-08-18T05:41:13.683Z,95156.19
2022-08-18T05:43:52.044Z,95228.84
2022-08-18T05:46:26.060Z,95243.75
2022-08-18T05:48:55.687Z,95163.81
2022-08-18T05:51:30.226Z,95241.06
2022-08-18T05:54:16.561Z,94994.16
2022-08-18T05:56:49.454Z,95240.16
2022-08-18T05:59:25.893Z,95236.09
2022-08-18T06:02:00.805Z,95240.59
2022-08-18T06:04:42.795Z,95229.41
2022-08-18T06:07:15.072Z,95124.97
2022-08-18T06:09:49.181Z,95237.09
2022-08-18T06:12:25.689Z,95141.56
2022-08-18T06:15:06.460Z,95230.50
2022-08-18T06:18:13.921Z,95225.22
2022-08-18T06:21:10.242Z,95230.56
2022-08-18T06:23:47.332Z,95237.59
2022-08-18T06:26:21.541Z,95227.41
2022-08-18T06:29:13.561Z,95183.47
2022-08-18T06:31:48.505Z,95166.63
2022-08-18T06:34:27.002Z,95221.78
2022-08-18T06:37:04.884Z,95229.50
2022-08-18T06:39:37.128Z,95234.03
2022-08-18T06:42:06.049Z,95230.03
2022-08-18T06:44:40.502Z,95236.03
2022-08-18T06:47:16.256Z,95227.28
2022-08-18T06:49:49.315Z,95218.44
2022-08-18T06:52:31.386Z,95220.44
2022-08-18T06:55:02.328Z,95182.22
2022-08-18T06:57:34.761Z,95209.63
2022-08-18T07:00:09.784Z,95206.22
2022-08-18T07:02:50.696Z,95212.63
2022-08-18T07:05:22.224Z,95193.41
2022-08-18T07:08:10.575Z,95173.38
2022-08-18T07:10:41.798Z,95205.03
2022-08-18T07:13:17.750Z,95201.16
2022-08-18T07:15:46.171Z,95180.41
2022-08-18T07:18:17.257Z,95175.75
2022-08-18T07:20:47.259Z,95183.84
2022-08-18T07:23:39.459Z,95183.13
2022-08-18T07:26:12.042Z,95201.88
2022-08-18T07:28:46.841Z,95186.91
2022-08-18T07:31:25.999Z,95189.06
2022-08-18T07:33:59.114Z,95182.06
2022-08-18T07:36:33.535Z,95195.78
2022-08-18T07:39:11.347Z,95197.16
2022-08-18T07:41:44.083Z,95201.28
2022-08-18T07:44:21.400Z,95186.28
2022-08-18T07:46:58.828Z,95189.81
2022-08-18T07:49:33.456Z,95186.16
2022-08-18T07:52:09.012Z,95166.91
2022-08-18T07:55:06.464Z,95170.78
2022-08-18T07:57:45.944Z,95193.97
2022-08-18T08:00:41.015Z,95149.78
2022-08-18T08:03:27.155Z,95176.41
2022-08-18T08:05:59.952Z,95190.88
2022-08-18T08:08:41.009Z,95180.72
2022-08-18T08:11:27.796Z,95185.03
2022-08-18T08:14:09.199Z,95177.28
2022-08-18T08:16:47.234Z,95074.69
2022-08-18T08:19:58.936Z,95182.28
2022-08-18T08:22:31.937Z,95195.28
2022-08-18T08:25:22.398Z,95177.38
2022-08-18T08:28:08.297Z,95185.84
2022-08-18T08:30:44.265Z,95173.53
2022-08-18T08:33:26.389Z,95177.91
2022-08-18T08:36:00.823Z,95180.56
2022-08-18T08:38:44.490Z,95173.00
2022-08-18T08:41:20.943Z,95169.94
2022-08-18T08:44:03.883Z,95173.25
2022-08-18T08:46:40.754Z,95168.78
2022-08-18T08:49:18.508Z,95166.81
2022-08-18T08:51:56.794Z,95163.72
2022-08-18T08:54:31.871Z,95148.25
2022-08-18T08:57:02.502Z,95138.44
2022-08-18T08:59:31.912Z,95170.41
2022-08-18T09:02:32.256Z,95166.38
2022-08-18T09:05:10.635Z,95154.09
2022-08-18T09:07:55.100Z,95154.91
2022-08-18T09:10:40.919Z,95161.69
2022-08-18T09:13:29.400Z,95142.94
2022-08-18T09:16:16.956Z,95137.97
2022-08-18T09:18:55.307Z,95149.59
2022-08-18T09:21:33.529Z,95097.03
2022-08-18T09:24:10.929Z,95139.81
2022-08-18T09:26:51.778Z,95143.31
2022-08-18T09:29:24.312Z,95135.75
2022-08-18T09:32:25.993Z,95131.09
2022-08-18T09:35:09.224Z,95114.19
2022-08-18T09:37:48.749Z,95127.91
2022-08-18T09:41:01.688Z,95128.09
2022-08-18T09:43:36.795Z,95114.19
2022-08-18T09:46:07.038Z,95118.53
2022-08-18T09:48:43.310Z,95122.28
2022-08-18T09:51:40.047Z,95115.84
2022-08-18T09:54:21.354Z,95101.34
2022-08-18T09:57:08.617Z,95108.25
2022-08-18T10:00:24.306Z,95102.28
2022-08-18T10:03:13.844Z,95085.53
2022-08-18T10:05:57.544Z,95097.34
2022-08-18T10:08:55.401Z,95088.63
2022-08-18T10:11:50.978Z,95089.63
2022-08-18T10:14:42.196Z,95095.06
2022-08-18T10:17:35.378Z,95083.22
2022-08-18T10:20:26.101Z,95086.53
2022-08-18T10:22:56.582Z,95077.16
2022-08-18T10:25:37.540Z,95074.53
2022-08-18T10:28:07.847Z,95077.16
2022-08-18T10:31:12.173Z,95063.78
2022-08-18T10:34:16.067Z,95076.09
2022-08-18T10:36:53.126Z,95065.06
2022-08-18T10:39:23.269Z,95062.25
2022-08-18T10:42:06.299Z,95074.09
2022-08-18T10:44:41.979Z,95057.84
2022-08-18T10:47:20.582Z,95071.16
2022-08-18T10:49:53.772Z,95070.16
2022-08-18T10:52:41.700Z,95057.16
2022-08-18T10:55:50.327Z,95054.09
2022-08-18T10:58:45.958Z,95043.59
2022-08-18T11:01:39.736Z,95059.69
2022-08-18T11:04:32.813Z,95055.38
2022-08-18T11:07:09.973Z,94995.47
2022-08-18T11:09:42.189Z,95032.31
2022-08-18T11:12:52.218Z,95045.38
2022-08-18T11:15:28.987Z,95045.34
2022-08-18T11:18:17.737Z,95029.09
2022-08-18T11:20:47.524Z,95035.91
2022-08-18T11:23:17.566Z,95048.13
2022-08-18T11:25:46.132Z,95023.94
2022-08-18T11:28:18.662Z,95041.53
2022-08-18T11:30:51.619Z,95027.72
2022-08-18T11:33:22.833Z,95029.75
2022-08-18T11:35:57.737Z,95029.25
2022-08-18T11:38:27.136Z,95028.59
2022-08-18T11:41:47.933Z,95029.25
2022-08-18T11:44:21.190Z,95027.88
2022-08-18T11:46:56.152Z,95030.44
2022-08-18T11:49:33.600Z,95029.63
2022-08-18T11:52:05.777Z,95025.91
2022-08-18T11:54:50.689Z,95030.13
2022-08-18T12:00:57.216Z,95019.06
2022-08-18T12:03:38.060Z,95013.13
2022-08-18T12:06:19.103Z,95013.66
2022-08-18T12:08:57.562Z,95011.91
2022-08-18T12:11:29.756Z,94976.00
2022-08-18T12:14:29.869Z,94979.28
2022-08-18T12:19:41.229Z,95003.81
2022-08-18T12:22:17.811Z,94998.78
2022-08-18T12:24:48.374Z,95000.91
2022-08-18T12:27:21.171Z,94980.78
2022-08-18T12:29:50.541Z,94992.47
2022-08-18T12:32:50.230Z,94937.22
2022-08-18T12:35:11.626Z,94993.22
2022-08-18T12:40:33.111Z,94953.72
2022-08-18T12:43:01.073Z,94977.69
2022-08-18T12:45:31.155Z,94982.66
2022-08-18T12:53:59.371Z,94980.88
2022-08-18T12:56:30.998Z,94974.47
2022-08-18T12:59:04.127Z,94977.31
2022-08-18T13:01:33.914Z,94969.41
2022-08-18T13:04:11.387Z,94959.41
2022-08-18T13:06:59.060Z,94971.34
2022-08-18T13:09:35.305Z,94940.22
2022-08-18T13:12:19.578Z,94955.00
2022-08-18T13:14:48.751Z,94973.84
2022-08-18T13:17:32.165Z,94951.84
2022-08-18T13:20:01.422Z,94967.53
2022-08-18T13:22:32.884Z,94942.56
2022-08-18T13:25:01.940Z,94961.41
2022-08-18T13:27:35.200Z,94945.28
2022-08-18T13:30:16.701Z,94954.16
2022-08-18T13:32:58.630Z,94916.78
2022-08-18T13:35:29.952Z,94924.34
2022-08-18T13:38:14.160Z,94942.72
2022-08-18T13:40:47.060Z,94943.50
2022-08-18T13:43:17.421Z,94946.34
2022-08-18T13:45:53.524Z,94947.25
2022-08-18T13:48:24.310Z,94940.38
2022-08-18T13:50:55.655Z,94820.81
2022-08-18T13:53:27.425Z,94941.59
2022-08-18T13:55:58.127Z,94886.13
2022-08-18T13:58:26.787Z,94941.44
2022-08-18T14:01:16.023Z,94932.50
2022-08-18T14:03:47.869Z,94907.41
2022-08-18T14:06:21.988Z,94933.19
2022-08-18T14:08:53.962Z,94930.06
2022-08-18T14:11:27.610Z,94916.13
2022-08-18T14:14:01.131Z,94934.22
2022-08-18T14:16:30.943Z,94934.81
2022-08-18T14:19:13.066Z,94914.19
2022-08-18T14:22:03.717Z,94930.28
2022-08-18T14:24:51.068Z,94930.72
2022-08-18T14:27:20.114Z,94908.88
2022-08-18T14:29:49.739Z,94925.66
2022-08-18T14:32:29.394Z,94916.81
2022-08-18T14:35:00.868Z,94928.00
2022-08-18T14:37:47.167Z,94919.78
2022-08-18T14:40:20.277Z,94916.25
2022-08-18T14:42:55.015Z,94917.31
2022-08-18T14:45:31.220Z,94923.66
2022-08-18T14:48:06.651Z,94916.69
2022-08-18T14:50:35.387Z,94849.00
2022-08-18T14:53:03.993Z,94912.63
2022-08-18T14:55:34.132Z,94915.38
2022-08-18T14:58:02.360Z,94921.34
2022-08-18T15:00:30.420Z,94890.41
2022-08-18T15:02:59.453Z,94920.16
2022-08-18T15:05:33.906Z,94924.75
2022-08-18T15:08:03.922Z,94917.38
2022-08-18T15:10:34.020Z,94913.97
2022-08-18T15:13:02.119Z,94878.22
2022-08-18T15:15:51.037Z,94923.72
2022-08-18T15:18:22.612Z,94904.25
2022-08-18T15:21:10.127Z,94935.44
2022-08-18T15:23:57.478Z,94927.31
2022-08-18T15:26:27.949Z,94928.47
2022-08-18T15:29:00.202Z,94909.59
2022-08-18T15:31:51.380Z,94930.09
2022-08-18T15:34:22.701Z,94924.44
2022-08-18T15:36:57.225Z,94931.22
2022-08-18T15:39:37.512Z,94930.63
2022-08-18T15:42:13.424Z,94869.59
2022-08-18T15:44:41.784Z,94903.88
2022-08-18T15:47:12.847Z,94918.50
2022-08-18T15:49:49.037Z,94883.19
2022-08-18T15:52:19.893Z,94930.75
2022-08-18T15:54:50.974Z,94922.56
2022-08-18T15:57:39.782Z,94922.78
2022-08-18T16:00:12.088Z,94887.09
2022-08-18T16:02:44.800Z,94918.72
2022-08-18T16:05:17.052Z,94928.16
2022-08-18T16:07:46.093Z,94929.13
2022-08-18T16:10:14.759Z,94923.16
2022-08-18T16:12:46.311Z,94941.75
2022-08-18T16:15:15.603Z,94856.97
2022-08-18T16:17:47.908Z,94930.97
2022-08-18T16:20:16.432Z,94668.25
2022-08-18T16:22:44.694Z,94851.47
2022-08-18T16:25:12.888Z,94616.53
2022-08-18T16:27:42.941Z,94898.56
2022-08-18T16:30:15.633Z,94815.38
2022-08-18T16:32:44.609Z,94934.19
2022-08-18T16:35:12.864Z,94900.59
2022-08-18T16:37:41.221Z,94934.44
2022-08-18T16:40:10.310Z,94935.81
2022-08-18T16:42:38.461Z,94944.38
2022-08-18T16:45:08.473Z,94938.09
2022-08-18T16:47:39.143Z,94948.66
2022-08-18T16:50:09.127Z,94951.31
2022-08-18T16:52:38.239Z,94512.97
2022-08-18T16:55:08.621Z,94945.97
2022-08-18T16:57:57.012Z,94945.06
2022-08-18T17:00:43.306Z,94941.97
2022-08-18T17:03:30.193Z,94948.97
2022-08-18T17:06:02.901Z,94950.28
2022-08-18T17:08:34.293Z,94881.88
2022-08-18T17:11:02.612Z,94965.34
2022-08-18T17:13:31.435Z,94843.66
2022-08-18T17:16:00.554Z,94890.78
2022-08-18T17:18:30.602Z,94959.53
2022-08-18T17:21:03.119Z,94957.03
2022-08-18T17:23:31.654Z,94871.03
2022-08-18T17:26:00.667Z,94958.44
2022-08-18T17:28:39.642Z,94966.66
2022-08-18T17:31:19.552Z,94930.81
2022-08-18T17:33:49.303Z,94646.34
2022-08-18T17:36:24.225Z,94900.22
2022-08-18T17:38:58.614Z,94988.03
2022-08-18T17:41:27.873Z,94953.81
2022-08-18T17:44:00.841Z,94990.44
2022-08-18T17:46:39.427Z,94950.84
2022-08-18T17:49:14.439Z,94890.97
2022-08-18T17:51:46.129Z,94995.38
2022-08-18T17:54:32.317Z,95008.00
2022-08-18T17:57:08.704Z,95014.47
2022-08-18T17:59:45.851Z,94845.84
2022-08-18T18:02:29.851Z,94968.00
2022-08-18T18:05:01.575Z,94993.94
2022-08-18T18:07:33.740Z,95036.78
2022-08-18T18:10:06.483Z,95044.78
2022-08-18T18:12:36.733Z,95038.31
2022-08-18T18:15:09.790Z,95048.91
2022-08-18T18:17:40.191Z,95053.19
2022-08-18T18:20:25.245Z,95051.63
2022-08-18T18:22:54.154Z,95051.91
2022-08-18T18:25:34.593Z,95058.06
2022-08-18T18:28:04.175Z,95013.34
2022-08-18T18:30:32.880Z,95025.97
2022-08-18T18:33:03.226Z,95011.22
2022-08-18T18:35:50.019Z,95051.63
2022-08-18T18:38:28.410Z,95056.97
2022-08-18T18:40:59.050Z,95075.00
2022-08-18T18:43:36.016Z,95066.34
2022-08-18T18:46:16.650Z,94989.91
2022-08-18T18:49:02.718Z,95057.97
2022-08-18T18:51:39.596Z,95066.09
2022-08-18T18:54:19.551Z,95059.91
2022-08-18T18:56:53.101Z,95068.47
2022-08-18T18:59:35.612Z,95071.16
2022-08-18T19:02:33.141Z,95031.31
2022-08-18T19:05:17.771Z,95059.22
2022-08-18T19:08:00.068Z,95066.31
2022-08-18T19:10:37.051Z,95065.19
2022-08-18T19:13:12.688Z,94745.47
2022-08-18T19:16:23.201Z,95062.44
2022-08-18T19:19:36.279Z,95063.94
2022-08-18T19:22:03.800Z,94993.94
2022-08-18T19:24:40.567Z,95056.53
2022-08-18T19:27:17.751Z,95061.09
2022-08-18T19:29:55.054Z,95064.13
2022-08-18T19:32:38.011Z,95054.38
2022-08-18T19:35:12.088Z,95053.38
2022-08-18T19:37:54.502Z,95062.66
2022-08-18T19:40:30.581Z,95038.75
2022-08-18T19:43:04.732Z,95068.88
2022-08-18T19:45:37.634Z,95048.72
2022-08-18T19:48:17.631Z,95058.69
2022-08-18T19:50:50.502Z,95040.31
2022-08-18T19:54:01.414Z,95059.69
2022-08-18T19:56:47.948Z,94963.75
2022-08-18T19:59:35.030Z,95054.72
2022-08-18T20:02:22.578Z,95050.69
2022-08-18T20:05:04.481Z,95050.69
2022-08-18T20:07:55.246Z,94978.59
2022-08-18T20:10:54.022Z,95041.75
2022-08-18T20:13:32.947Z,95039.44
2022-08-18T20:16:28.669Z,95041.88
2022-08-18T20:19:44.384Z,95042.09
2022-08-18T20:22:30.515Z,95049.72
2022-08-18T20:25:05.878Z,95045.84
2022-08-18T20:27:39.546Z,94964.19
2022-08-18T20:30:35.083Z,95054.34
2022-08-18T20:33:30.703Z,95049.03
2022-08-18T20:36:13.088Z,95056.97
2022-08-18T20:38:45.610Z,94991.19
2022-08-18T20:41:47.292Z,95074.88
2022-08-18T20:44:29.467Z,95066.13
2022-08-18T20:47:09.777Z,95065.31
2022-08-18T20:49:48.633Z,95011.38
2022-08-18T20:52:29.638Z,95066.06
2022-08-18T20:55:11.603Z,95030.50
2022-08-18T20:57:41.604Z,95073.00
2022-08-18T21:00:14.717Z,95072.50
2022-08-18T21:02:50.123Z,95065.84
2022-08-18T21:05:27.638Z,95078.88
2022-08-18T21:08:07.528Z,95077.31
2022-08-18T21:10:35.779Z,95069.75
2022-08-18T21:13:08.232Z,95074.91
2022-08-18T21:15:39.261Z,95073.41
2022-08-18T21:18:19.303Z,95075.66
2022-08-18T21:20:48.865Z,94877.16
2022-08-18T21:23:24.676Z,95073.41
2022-08-18T21:25:55.924Z,95028.84
2022-08-18T21:28:28.832Z,95070.38
2022-08-18T21:31:43.075Z,95073.88
2022-08-18T21:33:54.317Z,95030.28
2022-08-18T21:36:25.612Z,95070.56
2022-08-18T21:39:03.422Z,94963.22
2022-08-18T21:41:40.529Z,95067.13
2022-08-18T21:44:14.836Z,95071.50
2022-08-18T21:46:45.006Z,95075.13
2022-08-18T21:49:24.750Z,95033.38
2022-08-18T21:52:01.738Z,95070.88
2022-08-18T21:54:34.592Z,95074.00
2022-08-18T21:57:21.550Z,95025.50
2022-08-18T22:00:25.411Z,95072.59
2022-08-18T22:03:11.641Z,95077.66
2022-08-18T22:05:57.812Z,95070.19
2022-08-18T22:08:29.615Z,95068.63
2022-08-18T22:11:59.421Z,95050.81
2022-08-18T22:14:32.951Z,95065.91
2022-08-18T22:17:31.507Z,95070.84
2022-08-18T22:20:34.032Z,95069.22
2022-08-18T22:23:25.444Z,95076.56
2022-08-18T22:25:54.237Z,95086.31
2022-08-18T22:28:24.242Z,95072.84
2022-08-18T22:30:55.655Z,95073.44
2022-08-18T22:33:23.986Z,95062.50
2022-08-18T22:35:55.378Z,95063.53
2022-08-18T22:38:26.433Z,95063.09
2022-08-18T22:40:54.617Z,95068.34
2022-08-18T22:43:23.358Z,95064.50
2022-08-18T22:45:51.635Z,95061.22
2022-08-18T22:48:20.142Z,95054.31
2022-08-18T22:50:48.194Z,94952.69
2022-08-18T22:53:18.577Z,95054.09
2022-08-18T22:55:49.392Z,95049.75
2022-08-18T22:58:27.971Z,95050.13
2022-08-18T23:01:05.515Z,95052.75
2022-08-18T23:03:34.500Z,95010.94
2022-08-18T23:06:11.691Z,95040.53
2022-08-18T23:08:54.755Z,95050.81
2022-08-18T23:11:26.058Z,95047.22
2022-08-18T23:13:54.253Z,95052.47
2022-08-18T23:16:31.999Z,94951.72
2022-08-18T23:19:02.089Z,95054.13
2022-08-18T23:21:34.980Z,94993.66
2022-08-18T23:24:05.364Z,95042.03
2022-08-18T23:26:35.208Z,95046.09
2022-08-18T23:29:03.749Z,95046.63
2022-08-18T23:31:31.922Z,95055.72
2022-08-18T23:34:02.078Z,95065.19
2022-08-18T23:36:31.280Z,95042.47
2022-08-18T23:38:59.890Z,95032.50
2022-08-18T23:41:28.164Z,95025.09
2022-08-18T23:43:59.138Z,94989.78
2022-08-18T23:46:28.987Z,95040.03
2022-08-18T23:48:59.870Z,94900.97
2022-08-18T23:51:30.405Z,94948.44
2022-08-18T23:54:00.906Z,94975.22
2022-08-18T23:56:29.511Z,94986.47
2022-08-18T23:59:00.317Z,95036.38
